Time;durP1;ratioP1;P1;durP2;ratioP2;P2;SDS_P1;SDS_P2;PMS_P1;PMS_P2;Temp;Humidity;BMP_temperature;BMP_pressure;BME280_temperature;BME280_humidity;BME280_pressure;Samples;Min_cycle;Max_cycle;Signal;HPM_P1;HPM_P2
2022/01/26 00:06:16;;;;;;;526.08;275.02;;;1.50;1.00;;;;;;5027282;28;20431;-76
2022/01/26 00:08:46;;;;;;;518.67;271.30;;;1.40;1.00;;;;;;5032323;28;20045;-75
2022/01/26 00:11:15;;;;;;;512.38;262.20;;;1.40;1.00;;;;;;5032788;28;20494;-75
2022/01/26 00:13:45;;;;;;;483.73;253.73;;;1.40;1.00;;;;;;5035895;28;20060;-77
2022/01/26 00:16:22;;;;;;;469.30;245.38;;;1.40;1.00;;;;;;5037573;28;20084;-75
2022/01/26 00:18:52;;;;;;;478.60;247.98;;;1.30;1.00;;;;;;5032416;28;20457;-75
2022/01/26 00:21:27;;;;;;;519.55;278.05;;;1.30;1.00;;;;;;5032317;28;20041;-76
2022/01/26 00:27:06;;;;;;;486.13;256.30;;;1.00;1.00;;;;;;5026053;28;20060;-78
2022/01/26 00:29:36;;;;;;;477.67;244.98;;;0.90;1.00;;;;;;5035747;28;20057;-75
2022/01/26 00:40:30;;;;;;;371.02;180.90;;;1.00;28.10;;;;;;5046496;28;20099;-78
2022/01/26 00:43:03;;;;;;;374.75;188.88;;;1.00;31.80;;;;;;5050001;28;20076;-78
2022/01/26 00:45:35;;;;;;;399.65;202.65;;;0.90;34.10;;;;;;5040823;28;20042;-75
2022/01/26 00:48:07;;;;;;;391.30;197.00;;;1.00;30.50;;;;;;5037980;28;20183;-75
2022/01/26 00:50:35;;;;;;;400.17;202.15;;;1.00;30.90;;;;;;5037101;28;20048;-76
2022/01/26 00:53:04;;;;;;;332.08;164.13;;;1.00;30.00;;;;;;5036289;28;20392;-75
2022/01/26 00:55:33;;;;;;;322.63;161.48;;;1.10;29.70;;;;;;5033184;28;20403;-76
2022/01/26 00:58:01;;;;;;;333.20;161.50;;;1.10;29.40;;;;;;5016694;28;20103;-77
2022/01/26 01:00:29;;;;;;;307.98;154.10;;;1.10;29.50;;;;;;5042046;28;20044;-74
2022/01/26 01:03:00;;;;;;;303.48;155.07;;;1.00;27.70;;;;;;5036752;28;20479;-74
2022/01/26 01:05:33;;;;;;;320.98;161.07;;;1.10;28.90;;;;;;5036642;28;20045;-74
2022/01/26 01:08:05;;;;;;;301.45;155.77;;;1.00;29.40;;;;;;5034576;28;20053;-76
2022/01/26 01:10:34;;;;;;;292.15;147.10;;;1.00;25.00;;;;;;5036300;28;20044;-75
2022/01/26 01:13:02;;;;;;;285.02;147.27;;;1.00;30.80;;;;;;5036356;28;20131;-74
2022/01/26 01:15:31;;;;;;;271.52;137.65;;;1.00;32.20;;;;;;5036902;28;20418;-74
2022/01/26 01:18:08;;;;;;;275.63;139.57;;;1.00;30.20;;;;;;5036938;28;20149;-77
2022/01/26 01:21:00;;;;;;;276.60;139.63;;;1.00;27.30;;;;;;5036789;28;20099;-76
2022/01/26 01:23:57;;;;;;;264.70;135.55;;;1.00;28.40;;;;;;5036753;28;20041;-75
2022/01/26 01:26:53;;;;;;;296.52;150.15;;;1.00;31.10;;;;;;5036364;28;20041;-75
2022/01/26 01:29:23;;;;;;;290.85;148.27;;;1.10;30.20;;;;;;5036166;28;20065;-75
2022/01/26 01:31:56;;;;;;;305.42;153.30;;;1.10;33.40;;;;;;5036146;28;20041;-76
2022/01/26 01:34:29;;;;;;;336.70;169.30;;;1.00;23.00;;;;;;5034514;28;20057;-75
2022/01/26 01:37:02;;;;;;;345.38;172.73;;;1.10;30.60;;;;;;5036295;28;20037;-76
2022/01/26 01:39:30;;;;;;;329.85;163.15;;;1.10;23.90;;;;;;5036159;28;20421;-74
2022/01/26 01:41:59;;;;;;;325.55;166.65;;;1.20;27.00;;;;;;5036466;28;20048;-75
2022/01/26 01:44:27;;;;;;;330.52;169.07;;;1.20;16.80;;;;;;5035915;28;20037;-74
2022/01/26 01:46:56;;;;;;;319.25;156.90;;;1.30;26.10;;;;;;5036026;28;20128;-76
2022/01/26 01:49:24;;;;;;;318.02;162.25;;;1.20;21.50;;;;;;5034497;28;20557;-76
2022/01/26 01:51:55;;;;;;;325.42;161.55;;;1.30;21.30;;;;;;5051446;28;20061;-75
2022/01/26 01:54:23;;;;;;;319.95;161.27;;;1.30;22.20;;;;;;5034238;28;20076;-76
2022/01/26 01:56:55;;;;;;;316.20;160.60;;;1.40;22.90;;;;;;5035053;28;20038;-76
2022/01/26 01:59:24;;;;;;;337.17;171.77;;;1.30;19.70;;;;;;5036292;28;20038;-75
2022/01/26 02:01:52;;;;;;;352.48;180.07;;;1.40;18.30;;;;;;5034869;28;20128;-76
2022/01/26 02:04:20;;;;;;;355.35;178.25;;;1.40;20.80;;;;;;5047441;28;20029;-77
2022/01/26 02:06:47;;;;;;;349.02;183.45;;;1.40;23.10;;;;;;5056098;28;20034;-76
2022/01/26 02:09:14;;;;;;;361.95;182.57;;;1.40;23.20;;;;;;5035344;28;20486;-77
2022/01/26 02:11:49;;;;;;;356.88;187.93;;;1.50;23.90;;;;;;5035634;28;20048;-78
2022/01/26 02:14:23;;;;;;;350.52;179.65;;;1.50;24.80;;;;;;5034136;28;20056;-75
2022/01/26 02:17:01;;;;;;;360.00;186.40;;;1.60;28.00;;;;;;5034329;28;20064;-75
2022/01/26 02:53:23;;;;;;;347.02;177.73;;;1.70;28.60;;;;;;5020528;28;20684;-77
2022/01/26 02:55:56;;;;;;;336.63;175.27;;;1.60;29.00;;;;;;5035117;28;20049;-76
2022/01/26 03:01:29;;;;;;;356.30;182.52;;;1.60;30.70;;;;;;5049929;28;20048;-75
2022/01/26 03:04:00;;;;;;;328.00;167.40;;;1.50;32.30;;;;;;5049837;28;20069;-77
2022/01/26 03:06:35;;;;;;;317.90;161.93;;;1.50;31.00;;;;;;5033239;28;20065;-76
2022/01/26 03:09:09;;;;;;;344.48;178.25;;;1.50;6.70;;;;;;5033751;28;20061;-76
2022/01/26 03:11:40;;;;;;;332.35;165.38;;;1.40;40.00;;;;;;5037308;28;20497;-76
2022/01/26 03:14:15;;;;;;;379.90;197.55;;;1.40;34.30;;;;;;5032719;28;20037;-77
2022/01/26 03:16:47;;;;;;;;;;;1.30;45.80;;;;;;5034898;28;20049;-76
2022/01/26 03:19:20;;;;;;;376.80;200.60;;;1.30;31.20;;;;;;5033973;28;20303;-76
2022/01/26 03:22:03;;;;;;;377.52;200.65;;;1.20;27.80;;;;;;5034452;28;20071;-76
2022/01/26 03:30:09;;;;;;;314.42;159.40;;;1.30;1.00;;;;;;5032943;28;20876;-75
2022/01/26 03:33:08;;;;;;;297.92;152.05;;;1.40;1.00;;;;;;5034164;28;20426;-76
2022/01/26 03:35:42;;;;;;;322.73;163.88;;;1.40;1.00;;;;;;4993278;28;20042;-75
2022/01/26 03:38:18;;;;;;;343.35;173.75;;;1.30;1.00;;;;;;4994651;28;20081;-76
2022/01/26 03:40:46;;;;;;;341.60;181.05;;;1.30;1.00;;;;;;4993067;28;20053;-75
2022/01/26 03:43:15;;;;;;;330.98;171.48;;;1.30;1.00;;;;;;4993226;28;20038;-76
2022/01/26 03:45:43;;;;;;;311.73;163.82;;;1.20;1.00;;;;;;5022979;28;20491;-76
2022/01/26 03:48:10;;;;;;;282.45;145.95;;;1.20;1.00;;;;;;5008592;28;20042;-76
2022/01/26 03:50:37;;;;;;;286.25;145.10;;;1.30;1.00;;;;;;5013038;28;20042;-76
2022/01/26 03:53:05;;;;;;;302.48;148.20;;;1.30;1.00;;;;;;4992406;28;20577;-74
2022/01/26 03:55:33;;;;;;;302.30;153.00;;;1.20;1.00;;;;;;4994119;28;20092;-75
2022/01/26 03:58:00;;;;;;;313.65;150.75;;;1.20;1.00;;;;;;4992342;28;20050;-76
2022/01/26 04:00:29;;;;;;;315.95;151.55;;;1.20;1.00;;;;;;4994226;28;20439;-76
2022/01/26 04:02:57;;;;;;;315.38;148.52;;;1.20;1.00;;;;;;4994004;28;20074;-76
2022/01/26 04:05:25;;;;;;;282.85;138.25;;;1.10;1.00;;;;;;4994108;28;20050;-76
2022/01/26 04:07:58;;;;;;;245.20;121.65;;;1.00;1.00;;;;;;4994069;28;20050;-76
2022/01/26 04:10:36;;;;;;;243.23;121.28;;;1.00;1.00;;;;;;4993513;28;20050;-77
2022/01/26 04:13:04;;;;;;;234.90;119.78;;;1.00;1.00;;;;;;4993149;28;20069;-75
2022/01/26 04:15:35;;;;;;;249.00;120.32;;;1.10;1.00;;;;;;4984838;28;20050;-76
2022/01/26 04:18:05;;;;;;;233.27;115.28;;;1.10;1.00;;;;;;4995054;28;20099;-76
2022/01/26 04:20:37;;;;;;;220.07;111.60;;;1.10;1.00;;;;;;4979892;28;20487;-76
2022/01/26 04:23:11;;;;;;;225.70;114.32;;;1.20;1.00;;;;;;4993678;28;20117;-76
2022/01/26 04:25:41;;;;;;;229.00;113.50;;;1.20;1.00;;;;;;4992757;28;20086;-76
2022/01/26 04:28:14;;;;;;;235.25;116.35;;;1.20;1.00;;;;;;4994143;28;20066;-76
2022/01/26 04:30:43;;;;;;;228.90;116.10;;;1.20;1.00;;;;;;4993470;28;20046;-75
2022/01/26 04:33:10;;;;;;;226.07;116.72;;;1.20;1.00;;;;;;4995058;28;20199;-76
2022/01/26 04:35:42;;;;;;;232.32;117.63;;;1.20;1.00;;;;;;5034270;28;20403;-76
2022/01/26 04:38:17;;;;;;;236.25;119.97;;;1.30;1.00;;;;;;5035442;28;20038;-77
2022/01/26 04:40:48;;;;;;;234.48;119.57;;;1.30;1.00;;;;;;5054478;28;20050;-78
2022/01/26 04:43:19;;;;;;;238.35;119.63;;;1.30;1.00;;;;;;5054525;28;20065;-78
2022/01/26 04:45:48;;;;;;;247.80;121.13;;;1.40;1.00;;;;;;5038365;28;20080;-77
2022/01/26 04:48:16;;;;;;;245.80;126.07;;;1.50;1.00;;;;;;5033814;28;20037;-76
2022/01/26 04:50:43;;;;;;;245.32;125.30;;;1.50;1.00;;;;;;5032624;28;20132;-75
2022/01/26 04:53:11;;;;;;;258.02;132.82;;;1.60;1.00;;;;;;5031655;28;20068;-74
2022/01/26 04:55:38;;;;;;;267.05;136.80;;;1.70;1.00;;;;;;5029983;28;20044;-74
2022/01/26 04:58:06;;;;;;;271.15;138.68;;;1.60;1.00;;;;;;5032154;28;20080;-76
2022/01/26 05:00:33;;;;;;;280.42;146.57;;;1.40;1.00;;;;;;5032159;28;20049;-76
2022/01/26 05:03:02;;;;;;;294.17;151.77;;;1.40;1.00;;;;;;5033101;28;20571;-74
2022/01/26 05:05:30;;;;;;;286.58;146.35;;;1.40;1.00;;;;;;5031944;28;20049;-75
2022/01/26 05:07:57;;;;;;;291.98;149.50;;;1.40;1.00;;;;;;5033114;28;20402;-76
2022/01/26 05:10:25;;;;;;;300.15;154.10;;;1.30;1.00;;;;;;5034410;28;20392;-76
2022/01/26 05:12:52;;;;;;;290.30;152.63;;;1.30;1.00;;;;;;5036875;28;20041;-75
2022/01/26 05:15:23;;;;;;;297.77;147.05;;;1.20;1.00;;;;;;5037057;28;20482;-76
2022/01/26 05:17:50;;;;;;;284.65;148.93;;;1.10;1.00;;;;;;5035377;28;20502;-76
2022/01/26 05:20:19;;;;;;;298.35;150.82;;;1.00;1.00;;;;;;5035390;28;20494;-75
2022/01/26 05:22:47;;;;;;;303.98;154.27;;;1.00;1.00;;;;;;5034978;28;20138;-75
2022/01/26 05:25:15;;;;;;;320.20;164.55;;;1.00;1.00;;;;;;5035237;28;20041;-76
2022/01/26 05:27:42;;;;;;;327.92;169.80;;;1.00;1.00;;;;;;5036836;28;20069;-76
2022/01/26 05:30:11;;;;;;;328.35;169.57;;;1.00;1.00;;;;;;5038658;28;20107;-77
2022/01/26 05:32:39;;;;;;;326.73;168.65;;;1.00;1.00;;;;;;5040020;28;20414;-76
2022/01/26 05:35:07;;;;;;;324.95;170.50;;;1.10;1.00;;;;;;5039225;28;20517;-76
2022/01/26 05:37:36;;;;;;;329.35;170.50;;;1.10;1.00;;;;;;5039023;28;20053;-75
2022/01/26 05:40:03;;;;;;;369.50;186.15;;;1.10;1.00;;;;;;5038155;28;20083;-75
2022/01/26 05:42:34;;;;;;;335.15;169.00;;;1.00;1.00;;;;;;5035831;28;20042;-74
2022/01/26 05:45:04;;;;;;;448.50;220.38;;;1.00;1.00;;;;;;5036247;28;20065;-77
2022/01/26 05:47:33;;;;;;;704.10;332.48;;;0.90;1.00;;;;;;5038390;28;20041;-76
2022/01/26 05:50:01;;;;;;;318.17;162.98;;;0.90;1.00;;;;;;5036491;28;20459;-76
2022/01/26 05:52:29;;;;;;;456.80;221.27;;;1.00;1.00;;;;;;5034464;28;20091;-76
2022/01/26 05:54:58;;;;;;;373.92;182.18;;;1.00;1.00;;;;;;5035304;28;20103;-77
2022/01/26 05:57:25;;;;;;;306.15;151.95;;;1.00;1.00;;;;;;5036104;28;20048;-75
2022/01/26 05:59:54;;;;;;;269.08;143.73;;;1.00;1.00;;;;;;5035790;28;20202;-76
2022/01/26 06:02:22;;;;;;;267.02;138.13;;;1.00;1.00;;;;;;5051149;28;20487;-76
2022/01/26 06:04:49;;;;;;;264.13;137.93;;;1.10;1.00;;;;;;5035900;28;20117;-76
2022/01/26 06:07:17;;;;;;;382.48;191.50;;;1.10;1.00;;;;;;5045543;28;20118;-76
2022/01/26 06:09:44;;;;;;;474.30;234.02;;;1.10;1.00;;;;;;5037434;28;20067;-76
2022/01/26 06:12:13;;;;;;;618.40;294.85;;;1.10;1.00;;;;;;5034670;28;20049;-75
2022/01/26 06:14:41;;;;;;;577.47;279.30;;;1.10;1.00;;;;;;5034327;28;20069;-76
2022/01/26 06:17:08;;;;;;;516.10;249.85;;;1.10;1.00;;;;;;5035765;28;20116;-76
2022/01/26 06:19:36;;;;;;;392.00;195.23;;;1.20;1.00;;;;;;5033130;28;20049;-76
2022/01/26 06:22:04;;;;;;;446.58;212.95;;;1.20;1.00;;;;;;5035000;28;20483;-76
2022/01/26 06:24:31;;;;;;;401.98;206.73;;;1.20;1.00;;;;;;5035153;28;20057;-75
2022/01/26 06:26:59;;;;;;;448.85;228.32;;;1.20;1.00;;;;;;5034399;28;20552;-76
2022/01/26 06:29:29;;;;;;;454.48;233.77;;;1.20;1.00;;;;;;5050520;28;20049;-75
2022/01/26 06:31:57;;;;;;;464.90;228.70;;;1.20;1.00;;;;;;5034414;28;20042;-75
2022/01/26 06:34:25;;;;;;;384.30;191.45;;;1.30;1.00;;;;;;5035732;28;20060;-75
2022/01/26 06:36:52;;;;;;;340.20;169.55;;;1.30;1.00;;;;;;5034204;28;20498;-75
2022/01/26 06:39:19;;;;;;;304.92;154.18;;;1.30;1.00;;;;;;5034541;28;20049;-77
2022/01/26 06:41:51;;;;;;;333.73;166.65;;;1.20;1.00;;;;;;5034371;28;20045;-75
2022/01/26 06:44:25;;;;;;;338.75;170.60;;;1.20;1.00;;;;;;5035164;28;20041;-75
2022/01/26 06:47:03;;;;;;;343.58;173.50;;;1.20;1.00;;;;;;5030430;28;20044;-76
2022/01/26 06:49:31;;;;;;;364.17;187.90;;;1.20;1.00;;;;;;5054437;28;20046;-77
2022/01/26 06:51:59;;;;;;;362.55;185.57;;;1.20;1.00;;;;;;5050929;28;20065;-77
2022/01/26 06:54:27;;;;;;;376.95;194.35;;;1.20;1.00;;;;;;5042506;28;20410;-76
2022/01/26 06:56:54;;;;;;;368.58;193.15;;;1.30;1.00;;;;;;5036087;28;20140;-75
2022/01/26 06:59:23;;;;;;;387.95;208.60;;;1.20;1.00;;;;;;5035914;28;20046;-76
2022/01/26 07:01:50;;;;;;;475.90;249.95;;;1.20;1.00;;;;;;5036825;28;20033;-75
2022/01/26 07:04:19;;;;;;;418.98;219.88;;;1.20;1.00;;;;;;5036414;28;20047;-76
2022/01/26 07:06:47;;;;;;;406.50;212.15;;;1.20;1.00;;;;;;5036322;28;20483;-75
2022/01/26 07:09:16;;;;;;;375.10;192.57;;;1.20;1.00;;;;;;5035183;28;20391;-76
2022/01/26 07:11:45;;;;;;;365.00;182.35;;;1.20;1.00;;;;;;5035143;28;20396;-75
2022/01/26 07:14:21;;;;;;;376.88;183.32;;;1.20;1.00;;;;;;5034412;28;20049;-76
2022/01/26 07:19:52;;;;;;;363.67;185.02;;;1.30;1.00;;;;;;5047614;28;20052;-76
2022/01/26 07:22:20;;;;;;;341.38;178.80;;;1.30;1.00;;;;;;5045766;28;20051;-77
2022/01/26 07:24:48;;;;;;;337.10;175.10;;;1.30;1.00;;;;;;5036426;28;20045;-77
2022/01/26 07:27:16;;;;;;;397.08;205.75;;;1.20;1.00;;;;;;5038013;28;20045;-77
2022/01/26 07:29:43;;;;;;;403.55;207.07;;;1.30;1.00;;;;;;5036320;28;20061;-75
2022/01/26 07:32:11;;;;;;;410.67;216.75;;;1.30;1.00;;;;;;5032501;28;20136;-77
2022/01/26 07:34:41;;;;;;;378.02;194.35;;;1.40;1.00;;;;;;5033910;28;20057;-77
2022/01/26 07:37:12;;;;;;;336.88;177.85;;;1.50;1.00;;;;;;5034905;28;20402;-77
2022/01/26 07:39:43;;;;;;;369.98;199.95;;;1.50;1.00;;;;;;5030766;28;20038;-75
2022/01/26 07:42:11;;;;;;;382.63;200.38;;;1.50;1.00;;;;;;5049779;28;20087;-75
2022/01/26 07:44:46;;;;;;;400.90;209.35;;;1.50;1.00;;;;;;5033241;28;20041;-76
2022/01/26 07:47:13;;;;;;;371.95;203.07;;;1.50;1.00;;;;;;5033603;28;20050;-76
2022/01/26 07:49:42;;;;;;;373.02;201.45;;;1.60;1.00;;;;;;5015358;28;20049;-75
2022/01/26 07:52:10;;;;;;;379.92;203.82;;;1.60;1.00;;;;;;5014170;28;20046;-75
2022/01/26 07:54:37;;;;;;;376.77;199.07;;;1.70;1.00;;;;;;5018098;28;20069;-76
2022/01/26 07:57:06;;;;;;;397.90;210.40;;;1.70;1.00;;;;;;5034970;28;20056;-76
2022/01/26 07:59:34;;;;;;;394.90;213.88;;;1.70;1.00;;;;;;5023469;28;20046;-76
2022/01/26 08:02:01;;;;;;;414.33;229.52;;;1.80;1.00;;;;;;5033583;28;20041;-76
2022/01/26 08:04:29;;;;;;;410.58;224.40;;;1.80;1.00;;;;;;5034411;28;20068;-75
2022/01/26 08:06:58;;;;;;;393.33;209.45;;;1.90;1.00;;;;;;5030157;28;20049;-76
2022/01/26 08:09:26;;;;;;;419.70;216.93;;;2.00;1.00;;;;;;5036565;28;20072;-77
2022/01/26 08:11:53;;;;;;;407.77;217.52;;;2.10;1.00;;;;;;5034811;28;20473;-77
2022/01/26 08:14:23;;;;;;;400.40;216.43;;;2.10;1.00;;;;;;5033432;28;20110;-77
2022/01/26 08:16:50;;;;;;;387.33;207.10;;;2.10;1.00;;;;;;5024276;28;20077;-77
2022/01/26 08:19:18;;;;;;;381.45;205.93;;;2.10;1.00;;;;;;5037452;28;20068;-76
2022/01/26 08:21:46;;;;;;;346.75;188.68;;;2.10;1.00;;;;;;5033158;28;20191;-76
2022/01/26 08:24:15;;;;;;;319.23;167.43;;;2.10;1.00;;;;;;5033415;28;20376;-76
2022/01/26 08:26:47;;;;;;;314.05;168.88;;;2.10;1.00;;;;;;5034702;28;20060;-76
2022/01/26 08:29:18;;;;;;;334.27;178.95;;;2.20;1.00;;;;;;5035657;28;20101;-76
2022/01/26 08:31:46;;;;;;;319.38;171.95;;;2.30;1.00;;;;;;5035682;28;20034;-77
2022/01/26 08:34:13;;;;;;;226.50;123.13;;;2.20;1.00;;;;;;5036492;28;20050;-76
2022/01/26 08:36:41;;;;;;;262.25;138.07;;;2.30;1.00;;;;;;5052755;28;20045;-76
2022/01/26 08:39:08;;;;;;;256.70;136.98;;;2.30;1.90;;;;;;5051595;28;20037;-76
2022/01/26 08:41:37;;;;;;;277.88;149.63;;;2.20;1.00;;;;;;5033917;28;20076;-76
2022/01/26 08:44:05;;;;;;;272.58;145.75;;;2.40;2.10;;;;;;5033094;28;20165;-77
2022/01/26 08:46:33;;;;;;;280.50;146.00;;;2.50;3.50;;;;;;5039225;28;20045;-76
2022/01/26 08:49:02;;;;;;;277.70;141.10;;;2.50;1.00;;;;;;5034942;28;20042;-77
2022/01/26 08:51:30;;;;;;;248.35;132.13;;;2.50;1.00;;;;;;5032347;28;20049;-76
2022/01/26 08:53:57;;;;;;;257.80;136.85;;;2.50;1.30;;;;;;5037467;28;20422;-75
2022/01/26 08:56:25;;;;;;;275.08;145.30;;;2.50;1.00;;;;;;5019089;28;20037;-76
2022/01/26 08:58:55;;;;;;;270.90;144.75;;;2.50;1.00;;;;;;5017310;28;20513;-77
2022/01/26 09:01:23;;;;;;;283.65;154.88;;;2.50;1.00;;;;;;5033724;28;20041;-76
2022/01/26 09:03:51;;;;;;;275.08;147.82;;;2.60;1.00;;;;;;5039563;28;20063;-77
2022/01/26 09:06:18;;;;;;;261.15;139.57;;;2.60;1.10;;;;;;5037613;28;20049;-77
2022/01/26 09:08:50;;;;;;;270.08;144.52;;;2.70;1.00;;;;;;5016603;28;20050;-77
2022/01/26 09:11:21;;;;;;;273.13;144.77;;;2.70;1.00;;;;;;5017351;28;20050;-77
2022/01/26 09:13:56;;;;;;;270.60;143.15;;;2.70;1.00;;;;;;5017423;28;20052;-77
2022/01/26 09:16:27;;;;;;;283.33;150.45;;;2.70;1.00;;;;;;5022426;28;20033;-76
2022/01/26 09:18:58;;;;;;;293.92;155.05;;;2.70;2.30;;;;;;5038659;28;20048;-75
2022/01/26 09:21:26;;;;;;;292.92;156.02;;;2.70;1.00;;;;;;5037814;28;20084;-76
2022/01/26 09:23:53;;;;;;;304.85;155.77;;;2.70;1.90;;;;;;5036760;28;20030;-74
2022/01/26 09:26:20;;;;;;;291.90;152.32;;;2.80;1.00;;;;;;5036659;28;20040;-76
2022/01/26 09:28:48;;;;;;;300.67;155.15;;;2.80;1.00;;;;;;5021600;28;20061;-76
2022/01/26 09:31:15;;;;;;;295.45;158.40;;;2.80;1.00;;;;;;5022364;28;20045;-75
2022/01/26 09:33:44;;;;;;;292.80;153.57;;;2.80;1.00;;;;;;5037394;28;20050;-76
2022/01/26 09:36:12;;;;;;;294.17;155.77;;;2.90;1.00;;;;;;5040087;28;20046;-76
2022/01/26 09:38:39;;;;;;;274.85;147.35;;;2.80;10.40;;;;;;5038502;28;20125;-76
2022/01/26 09:41:07;;;;;;;257.00;137.82;;;2.80;1.00;;;;;;5037818;28;20191;-75
2022/01/26 09:43:35;;;;;;;261.23;135.98;;;2.80;1.00;;;;;;5049655;28;20034;-74
2022/01/26 09:46:03;;;;;;;247.07;134.13;;;2.90;1.00;;;;;;5019999;28;20042;-77
2022/01/26 09:48:33;;;;;;;287.58;149.25;;;2.90;1.00;;;;;;5030195;28;20151;-74
2022/01/26 09:51:02;;;;;;;287.00;150.82;;;3.00;1.50;;;;;;5039702;28;20041;-74
2022/01/26 09:53:32;;;;;;;260.67;135.98;;;3.10;1.00;;;;;;5035162;28;20156;-75
2022/01/26 09:55:59;;;;;;;248.93;134.65;;;3.00;1.00;;;;;;5020370;28;20538;-76
2022/01/26 09:58:30;;;;;;;252.95;137.93;;;3.00;1.00;;;;;;5031097;28;20141;-76
2022/01/26 10:00:59;;;;;;;252.77;137.02;;;3.00;1.00;;;;;;5041651;28;20041;-75
2022/01/26 10:03:31;;;;;;;257.67;134.95;;;3.00;1.00;;;;;;5016859;28;20076;-76
2022/01/26 10:05:59;;;;;;;259.17;136.15;;;3.00;3.40;;;;;;5022466;28;20069;-75
2022/01/26 10:09:13;;;;;;;278.63;144.18;;;3.10;1.00;;;;;;5038381;28;20117;-75
2022/01/26 10:17:28;;;;;;;283.58;151.43;;;3.00;1.00;;;;;;5045744;28;20072;-76
2022/01/26 10:19:58;;;;;;;293.55;164.43;;;3.00;1.00;;;;;;5048271;28;20053;-77
2022/01/26 10:22:31;;;;;;;302.00;163.77;;;3.00;1.00;;;;;;5055806;28;20046;-77
2022/01/26 10:25:13;;;;;;;325.85;168.90;;;3.10;1.00;;;;;;5054764;28;20029;-77
2022/01/26 10:27:42;;;;;;;293.92;160.32;;;3.20;1.00;;;;;;5054597;28;20049;-77
2022/01/26 10:30:12;;;;;;;297.15;157.75;;;3.20;1.00;;;;;;5045321;28;20143;-77
2022/01/26 10:32:41;;;;;;;299.85;156.85;;;3.30;1.00;;;;;;5064568;28;20048;-77
2022/01/26 10:35:10;;;;;;;304.83;161.57;;;3.30;1.00;;;;;;5045363;28;20108;-77
2022/01/26 10:37:41;;;;;;;331.88;173.48;;;3.20;1.00;;;;;;5049945;28;20072;-76
2022/01/26 10:40:16;;;;;;;295.35;159.30;;;3.20;1.00;;;;;;5044699;28;20041;-76
2022/01/26 10:42:58;;;;;;;285.80;153.38;;;3.10;1.00;;;;;;5043415;28;20072;-75
2022/01/26 10:45:37;;;;;;;276.98;148.65;;;3.20;2.50;;;;;;5044460;28;20121;-75
2022/01/26 10:48:18;;;;;;;298.00;161.07;;;3.20;1.00;;;;;;5047177;28;20042;-76
2022/01/26 10:51:08;;;;;;;310.38;165.23;;;3.30;1.00;;;;;;5054146;28;20041;-75
2022/01/26 10:53:40;;;;;;;294.25;156.50;;;3.20;1.00;;;;;;5047590;28;20045;-75
2022/01/26 10:56:09;;;;;;;297.15;158.95;;;3.10;1.00;;;;;;5060353;28;20045;-75
2022/01/26 10:58:36;;;;;;;289.13;155.90;;;3.20;1.00;;;;;;5033908;28;20111;-75
2022/01/26 11:01:05;;;;;;;310.92;164.60;;;3.30;1.00;;;;;;5048124;28;20060;-74
2022/01/26 11:03:33;;;;;;;308.60;163.90;;;3.30;1.00;;;;;;5053144;28;20048;-76
2022/01/26 11:06:01;;;;;;;280.85;146.48;;;3.40;1.00;;;;;;5053921;28;20072;-75
2022/01/26 11:08:30;;;;;;;306.83;161.00;;;3.50;1.00;;;;;;5055075;28;20049;-76
2022/01/26 11:10:58;;;;;;;298.00;161.75;;;3.50;1.00;;;;;;5019531;28;20054;-76
2022/01/26 11:13:29;;;;;;;299.42;160.23;;;3.60;1.00;;;;;;5031887;28;20077;-76
2022/01/26 11:16:13;;;;;;;315.25;164.40;;;3.60;1.00;;;;;;5016283;28;20386;-76
2022/01/26 11:18:49;;;;;;;315.63;168.30;;;3.70;1.00;;;;;;5016342;28;20074;-76
2022/01/26 11:21:28;;;;;;;323.63;173.15;;;3.70;1.00;;;;;;5017887;28;20131;-76
2022/01/26 11:24:10;;;;;;;321.80;169.98;;;3.60;1.00;;;;;;5032297;28;20132;-76
2022/01/26 11:26:41;;;;;;;324.77;172.63;;;3.50;1.00;;;;;;5017349;28;20128;-76
2022/01/26 11:29:24;;;;;;;331.10;175.13;;;3.30;1.00;;;;;;5031914;28;20141;-76
2022/01/26 11:32:05;;;;;;;325.42;173.38;;;3.40;1.00;;;;;;5016223;28;20045;-76
2022/01/26 11:34:33;;;;;;;349.15;187.50;;;3.50;1.00;;;;;;5016353;28;20132;-76
2022/01/26 11:37:03;;;;;;;332.77;179.75;;;3.40;1.00;;;;;;5027033;28;20100;-76
2022/01/26 11:45:01;;;;;;;337.45;180.85;;;3.70;1.00;;;;;;5034759;28;20521;-77
2022/01/26 11:45:34;;;;;;;331.20;182.35;;;3.80;1.00;;;;;;5035175;28;20415;-75
2022/01/26 11:48:09;;;;;;;319.20;176.27;;;3.90;1.00;;;;;;5034825;28;20049;-77
2022/01/26 11:50:38;;;;;;;349.42;186.95;;;4.00;10.90;;;;;;5035959;28;20052;-76
2022/01/26 11:53:07;;;;;;;312.13;163.40;;;4.10;6.10;;;;;;5035904;28;20141;-77
2022/01/26 11:55:41;;;;;;;258.23;133.38;;;4.20;1.00;;;;;;5034946;28;20396;-75
2022/01/26 11:58:14;;;;;;;211.70;117.03;;;4.30;1.00;;;;;;5034904;28;20100;-75
2022/01/26 12:00:51;;;;;;;193.10;105.15;;;4.30;1.00;;;;;;5034877;28;20120;-76
2022/01/26 12:03:24;;;;;;;171.32;95.15;;;4.30;1.00;;;;;;5035845;28;20050;-75
2022/01/26 12:05:55;;;;;;;187.40;98.53;;;4.30;1.00;;;;;;5034261;28;20119;-75
2022/01/26 12:08:37;;;;;;;174.88;97.72;;;4.50;1.00;;;;;;5035972;28;20457;-75
2022/01/26 12:11:06;;;;;;;195.32;107.97;;;4.50;1.00;;;;;;5033081;28;20411;-75
2022/01/26 12:13:36;;;;;;;181.98;102.18;;;4.30;1.00;;;;;;5032234;28;20029;-76
2022/01/26 12:16:11;;;;;;;202.43;108.70;;;4.20;1.00;;;;;;5038027;28;20073;-75
2022/01/26 12:18:45;;;;;;;189.50;100.68;;;4.10;1.00;;;;;;5046133;28;20069;-77
2022/01/26 12:32:45;;;;;;;160.75;87.50;;;4.40;1.00;;;;;;5017565;28;20133;-74
2022/01/26 12:35:20;;;;;;;170.50;91.80;;;4.40;1.00;;;;;;5028512;28;20053;-74
2022/01/26 12:37:58;;;;;;;148.82;84.00;;;4.50;1.00;;;;;;5035094;28;20113;-75
2022/01/26 12:43:17;;;;;;;143.63;79.25;;;4.60;1.00;;;;;;5017330;28;20042;-75
2022/01/26 12:45:48;;;;;;;142.00;77.82;;;4.50;1.00;;;;;;5018466;28;20521;-75
2022/01/26 12:48:18;;;;;;;142.63;78.35;;;4.50;1.00;;;;;;5022451;28;20483;-75
2022/01/26 12:50:46;;;;;;;132.80;73.78;;;4.40;1.00;;;;;;5031143;28;20450;-75
2022/01/26 12:53:16;;;;;;;134.98;73.85;;;4.40;1.00;;;;;;5032257;28;20046;-75
2022/01/26 12:55:44;;;;;;;135.88;74.43;;;4.20;1.00;;;;;;5040338;28;20049;-76
2022/01/26 12:58:12;;;;;;;131.43;71.40;;;4.20;1.00;;;;;;5035071;28;20441;-75
2022/01/26 13:00:41;;;;;;;125.65;71.20;;;4.20;1.00;;;;;;5049107;28;20105;-76
2022/01/26 13:03:14;;;;;;;123.95;70.28;;;4.20;1.00;;;;;;5043977;28;20056;-76
2022/01/26 13:05:44;;;;;;;123.07;68.88;;;4.20;1.00;;;;;;5053544;28;20045;-75
2022/01/26 13:08:12;;;;;;;122.25;67.60;;;4.20;1.00;;;;;;5034162;28;20052;-75
2022/01/26 13:10:40;;;;;;;124.38;69.10;;;4.20;1.00;;;;;;5042107;28;20044;-76
2022/01/26 13:13:12;;;;;;;113.03;65.47;;;4.20;1.00;;;;;;5051208;28;20053;-76
2022/01/26 13:15:47;;;;;;;116.40;65.65;;;4.30;1.00;;;;;;5031737;28;20112;-77
2022/01/26 13:18:30;;;;;;;119.78;65.85;;;4.20;1.00;;;;;;5037963;28;20415;-76
2022/01/26 13:21:16;;;;;;;121.47;66.88;;;4.30;1.00;;;;;;5037925;28;20041;-76
2022/01/26 13:23:58;;;;;;;113.13;64.75;;;4.30;1.00;;;;;;5049965;28;20045;-76
2022/01/26 13:26:35;;;;;;;123.40;67.55;;;4.50;1.00;;;;;;5027633;28;20073;-76
2022/01/26 13:32:16;;;;;;;119.60;69.50;;;4.30;1.00;;;;;;5029638;28;20087;-75
2022/01/26 13:35:01;;;;;;;119.45;64.00;;;4.40;1.00;;;;;;5031169;28;20049;-75
2022/01/26 13:37:41;;;;;;;120.35;64.45;;;4.40;1.00;;;;;;5035577;28;20055;-76
2022/01/26 13:40:23;;;;;;;119.93;66.75;;;4.40;1.00;;;;;;5043790;28;20070;-76
2022/01/26 13:43:17;;;;;;;113.80;61.88;;;4.40;1.00;;;;;;5034979;28;20078;-76
2022/01/26 13:46:10;;;;;;;110.38;63.80;;;4.40;1.00;;;;;;5035779;28;20418;-77
2022/01/26 13:49:11;;;;;;;102.38;60.97;;;4.50;1.00;;;;;;5026725;28;20057;-75
2022/01/26 13:51:47;;;;;;;117.38;67.32;;;4.50;1.00;;;;;;5027081;28;20046;-77
2022/01/26 13:54:45;;;;;;;115.53;63.40;;;4.40;1.00;;;;;;5043816;28;20046;-78
2022/01/26 13:57:41;;;;;;;117.93;63.08;;;4.40;1.00;;;;;;5045242;28;20046;-75
2022/01/26 14:00:11;;;;;;;119.87;67.00;;;4.40;1.00;;;;;;5037004;28;20050;-75
2022/01/26 14:02:41;;;;;;;125.05;69.18;;;4.50;1.00;;;;;;5038392;28;20061;-76
2022/01/26 14:05:09;;;;;;;122.75;68.07;;;4.60;1.00;;;;;;5038783;28;20045;-76
2022/01/26 14:07:36;;;;;;;112.85;63.65;;;4.70;1.00;;;;;;5052738;28;20061;-75
2022/01/26 14:10:06;;;;;;;117.25;65.00;;;4.40;1.00;;;;;;5036028;28;20045;-77
2022/01/26 14:12:39;;;;;;;113.05;63.33;;;4.30;1.00;;;;;;5037332;28;20517;-76
2022/01/26 14:15:09;;;;;;;105.95;61.30;;;4.30;1.00;;;;;;5057429;28;20064;-76
2022/01/26 14:17:53;;;;;;;102.45;58.00;;;4.30;1.00;;;;;;5056580;28;20053;-78